createdAt,value
2017-12-05T00:01:53.191Z,2.59
2017-12-05T00:04:22.772Z,2.62
2017-12-05T00:06:52.552Z,2.71
2017-12-05T00:09:22.303Z,2.60
2017-12-05T00:11:52.088Z,2.64
2017-12-05T00:14:21.813Z,2.66
2017-12-05T00:16:51.612Z,2.68
2017-12-05T00:19:21.387Z,2.78
2017-12-05T00:21:51.131Z,2.76
2017-12-05T00:24:20.913Z,2.74
2017-12-05T00:26:50.715Z,2.89
2017-12-05T00:29:20.453Z,2.77
2017-12-05T00:31:50.510Z,2.77
2017-12-05T00:34:20.257Z,2.83
2017-12-05T00:36:50.114Z,2.83
2017-12-05T00:39:19.851Z,2.88
2017-12-05T00:41:49.600Z,2.79
2017-12-05T00:44:19.343Z,2.90
2017-12-05T00:46:48.777Z,2.95
2017-12-05T00:49:18.534Z,2.84
2017-12-05T00:51:48.268Z,2.86
2017-12-05T00:54:18.041Z,2.82
2017-12-05T00:56:47.787Z,2.84
2017-12-05T00:59:17.524Z,2.88
2017-12-05T01:01:47.290Z,2.87
2017-12-05T01:04:17.040Z,2.83
2017-12-05T01:06:46.792Z,2.85
2017-12-05T01:09:16.575Z,2.85
2017-12-05T01:11:46.535Z,2.79
2017-12-05T01:14:16.278Z,2.82
2017-12-05T01:16:46.017Z,2.82
2017-12-05T01:19:15.819Z,2.75
2017-12-05T01:21:45.628Z,2.75
2017-12-05T01:24:15.399Z,2.78
2017-12-05T01:26:45.149Z,2.76
2017-12-05T01:29:14.878Z,2.85
2017-12-05T01:31:44.609Z,2.80
2017-12-05T01:34:14.345Z,2.76
2017-12-05T01:36:44.088Z,2.64
2017-12-05T05:22:04.809Z,2.65
2017-12-05T05:24:34.536Z,2.68
2017-12-05T05:27:04.093Z,2.65
2017-12-05T05:29:33.653Z,2.66
2017-12-05T05:32:03.428Z,2.73
2017-12-05T05:34:33.267Z,2.72
2017-12-05T05:37:03.022Z,2.74
2017-12-05T05:39:32.844Z,2.74
2017-12-05T05:42:02.582Z,2.73
2017-12-05T05:44:32.369Z,2.78
2017-12-05T05:47:13.944Z,2.74
2017-12-05T05:49:44.353Z,2.71
2017-12-05T05:52:14.170Z,2.72
2017-12-05T05:54:48.250Z,2.78
2017-12-05T05:57:19.721Z,2.74
2017-12-05T05:59:49.985Z,2.79
2017-12-05T06:02:20.340Z,2.85
2017-12-05T06:04:50.120Z,2.86
2017-12-05T06:07:20.080Z,2.86
2017-12-05T06:09:49.877Z,2.84
2017-12-05T06:12:19.710Z,2.92
2017-12-05T06:14:50.485Z,2.89
2017-12-05T06:17:20.482Z,2.86
2017-12-05T06:19:52.170Z,2.90
2017-12-05T06:22:22.339Z,3.03
2017-12-05T06:24:52.081Z,3.36
2017-12-05T06:27:22.122Z,3.38
2017-12-05T06:29:51.861Z,3.23
2017-12-05T06:32:21.616Z,2.95
2017-12-05T06:34:51.413Z,2.86
2017-12-05T06:37:21.205Z,2.87
2017-12-05T06:39:51.494Z,2.85
2017-12-05T06:42:21.376Z,2.80
2017-12-05T06:44:51.216Z,2.81
2017-12-05T06:47:20.817Z,2.81
2017-12-05T06:49:50.496Z,2.79
2017-12-05T06:52:19.955Z,2.78
2017-12-05T06:54:49.391Z,2.80
2017-12-05T06:57:18.825Z,2.77
2017-12-05T06:59:48.700Z,2.78
2017-12-05T07:02:18.950Z,2.76
2017-12-05T07:04:48.378Z,2.76
2017-12-05T07:07:22.091Z,2.75
2017-12-05T07:09:51.444Z,2.75
2017-12-05T07:12:20.873Z,2.75
2017-12-05T07:14:50.334Z,2.76
2017-12-05T07:17:20.108Z,2.70
2017-12-05T07:19:49.635Z,2.71
2017-12-05T07:22:18.866Z,2.70
2017-12-05T07:24:48.965Z,2.63
2017-12-05T07:27:18.480Z,2.71
2017-12-05T07:29:47.963Z,2.70
2017-12-05T07:32:17.777Z,2.67
2017-12-05T07:34:47.209Z,2.68
2017-12-05T07:37:17.850Z,2.68
2017-12-05T07:39:47.314Z,2.68
2017-12-05T07:42:17.385Z,2.70
2017-12-05T07:44:47.161Z,2.71
2017-12-05T07:47:16.660Z,2.70
2017-12-05T07:49:46.063Z,2.65
2017-12-05T07:52:15.504Z,2.67
2017-12-05T07:54:45.376Z,2.73
2017-12-05T07:57:15.105Z,2.68
2017-12-05T07:59:44.697Z,2.74
2017-12-05T08:02:14.321Z,2.75
2017-12-05T08:04:44.103Z,2.73
2017-12-05T08:07:13.693Z,2.72
2017-12-05T08:09:43.454Z,2.74
2017-12-05T08:12:12.750Z,2.74
2017-12-05T08:14:42.196Z,2.75
2017-12-05T08:17:11.626Z,2.73
2017-12-05T08:19:42.211Z,2.78
2017-12-05T08:22:11.639Z,2.82
2017-12-05T08:24:42.633Z,2.82
2017-12-05T08:27:12.429Z,2.86
2017-12-05T08:29:41.917Z,2.87
2017-12-05T08:32:11.338Z,2.85
2017-12-05T08:34:41.860Z,2.87
2017-12-05T08:37:11.600Z,2.95
2017-12-05T08:39:41.001Z,2.95
2017-12-05T08:42:10.408Z,2.98
2017-12-05T08:44:40.342Z,3.00
2017-12-05T08:47:09.799Z,2.96
2017-12-05T08:49:39.819Z,2.98
2017-12-05T08:52:09.255Z,2.98
2017-12-05T08:54:38.659Z,2.99
2017-12-05T08:57:08.226Z,3.01
2017-12-05T08:59:39.422Z,3.06
2017-12-05T09:02:08.928Z,3.05
2017-12-05T09:04:38.362Z,3.06
2017-12-05T09:07:07.858Z,3.05
2017-12-05T09:09:37.349Z,3.01
2017-12-05T09:12:06.676Z,3.05
2017-12-05T09:14:36.582Z,3.00
2017-12-05T09:17:06.044Z,3.07
2017-12-05T09:19:35.534Z,3.18
2017-12-05T09:22:04.931Z,3.17
2017-12-05T09:24:34.380Z,3.22
2017-12-05T09:27:04.179Z,3.18
2017-12-05T09:29:33.958Z,3.27
2017-12-05T09:32:03.361Z,3.29
2017-12-05T09:34:32.782Z,3.38
2017-12-05T09:37:02.618Z,3.47
2017-12-05T09:39:31.890Z,3.56
2017-12-05T09:42:01.397Z,3.61
2017-12-05T09:44:31.124Z,3.65
2017-12-05T09:47:00.576Z,3.84
2017-12-05T09:49:29.859Z,3.72
2017-12-05T09:51:59.128Z,3.79
2017-12-05T09:54:28.599Z,3.84
2017-12-05T09:56:58.101Z,3.89
2017-12-05T09:59:27.549Z,4.00
2017-12-05T10:01:57.305Z,3.77
2017-12-05T10:04:30.583Z,3.73
2017-12-05T10:07:00.321Z,3.75
2017-12-05T10:09:29.742Z,3.86
2017-12-05T10:11:59.186Z,3.91
2017-12-05T10:14:28.610Z,3.77
2017-12-05T10:16:58.053Z,3.87
2017-12-05T10:19:27.485Z,3.95
2017-12-05T10:21:56.898Z,4.04
2017-12-05T10:24:26.299Z,4.06
2017-12-05T10:26:55.786Z,4.04
2017-12-05T10:29:25.229Z,4.03
2017-12-05T10:31:54.715Z,4.02
2017-12-05T10:34:24.471Z,4.02
2017-12-05T10:36:53.722Z,4.13
2017-12-05T10:39:23.264Z,4.39
2017-12-05T10:41:52.691Z,4.57
2017-12-05T10:44:22.763Z,4.46
2017-12-05T10:46:52.696Z,4.47
2017-12-05T10:49:22.190Z,4.41
2017-12-05T10:51:51.569Z,4.55
2017-12-05T10:54:21.020Z,4.59
2017-12-05T10:56:50.445Z,4.53
2017-12-05T10:59:20.108Z,4.65
2017-12-05T11:01:49.854Z,4.78
2017-12-05T11:04:19.765Z,4.88
2017-12-05T11:06:49.406Z,4.76
2017-12-05T11:09:19.138Z,4.61
2017-12-05T11:11:48.722Z,4.74
2017-12-05T11:14:18.413Z,4.80
2017-12-05T11:16:48.162Z,4.71
2017-12-05T11:19:18.745Z,4.65
2017-12-05T11:21:48.404Z,4.68
2017-12-05T11:24:18.218Z,4.94
2017-12-05T11:26:47.823Z,5.02
2017-12-05T11:29:17.656Z,5.03
2017-12-05T11:31:47.075Z,4.89
2017-12-05T11:34:16.874Z,4.89
2017-12-05T11:36:46.843Z,4.83
2017-12-05T11:39:16.710Z,4.76
2017-12-05T11:41:46.490Z,4.77
2017-12-05T11:44:16.224Z,4.80
2017-12-05T11:46:45.996Z,4.92
2017-12-05T11:49:15.739Z,5.08
2017-12-05T11:51:45.520Z,5.14
2017-12-05T11:54:15.264Z,5.29
2017-12-05T11:56:45.388Z,5.33
2017-12-05T11:59:15.116Z,5.25
2017-12-05T12:01:44.848Z,5.31
2017-12-05T12:04:16.095Z,5.45
2017-12-05T12:06:45.985Z,5.44
2017-12-05T12:09:15.828Z,5.28
2017-12-05T12:11:45.600Z,5.20
2017-12-05T12:14:15.322Z,5.27
2017-12-05T12:16:45.173Z,5.21
2017-12-05T12:19:14.936Z,5.26
2017-12-05T12:21:44.725Z,5.26
2017-12-05T12:24:14.501Z,5.28
2017-12-05T12:26:44.294Z,5.12
2017-12-05T12:29:14.070Z,5.19
2017-12-05T12:31:43.904Z,5.28
2017-12-05T12:34:13.739Z,5.48
2017-12-05T12:36:43.518Z,5.47
2017-12-05T12:39:13.333Z,5.33
2017-12-05T12:41:42.776Z,5.36
2017-12-05T12:44:12.627Z,5.26
2017-12-05T12:46:42.434Z,5.39
2017-12-05T12:49:12.209Z,5.40
2017-12-05T12:51:41.978Z,5.32
2017-12-05T12:54:11.806Z,5.52
2017-12-05T12:56:41.599Z,5.48
2017-12-05T12:59:11.571Z,5.54
2017-12-05T13:01:42.291Z,5.61
2017-12-05T13:04:12.074Z,5.62
2017-12-05T13:06:41.944Z,5.48
2017-12-05T13:09:12.408Z,5.43
2017-12-05T13:11:42.202Z,5.45
2017-12-05T13:14:11.993Z,5.45
2017-12-05T13:16:41.767Z,5.38
2017-12-05T13:19:12.355Z,5.48
2017-12-05T13:21:42.081Z,5.41
2017-12-05T13:24:11.890Z,5.38
2017-12-05T13:26:41.703Z,5.22
2017-12-05T13:29:11.447Z,5.22
2017-12-05T13:31:41.225Z,5.12
2017-12-05T13:34:11.093Z,5.08
2017-12-05T13:36:41.003Z,5.00
2017-12-05T13:39:10.488Z,5.03
2017-12-05T13:41:40.287Z,5.02
2017-12-05T13:44:10.091Z,4.91
2017-12-05T13:46:39.833Z,4.87
2017-12-05T13:49:09.686Z,4.81
2017-12-05T13:51:39.549Z,4.86
2017-12-05T13:54:09.479Z,4.91
2017-12-05T13:56:39.259Z,4.86
2017-12-05T13:59:09.101Z,4.90
2017-12-05T14:01:38.847Z,5.01
2017-12-05T14:04:08.234Z,4.95
2017-12-05T14:06:38.013Z,4.97
2017-12-05T14:09:07.591Z,5.02
2017-12-05T14:11:37.309Z,5.01
2017-12-05T14:14:06.894Z,4.94
2017-12-05T14:16:36.676Z,4.91
2017-12-05T14:19:06.423Z,4.76
2017-12-05T14:21:36.496Z,4.83
2017-12-05T14:24:06.091Z,4.71
2017-12-05T14:26:35.518Z,4.66
2017-12-05T14:29:05.346Z,4.65
2017-12-05T14:31:35.149Z,4.62
2017-12-05T14:34:04.934Z,4.63
2017-12-05T14:36:34.427Z,4.58
2017-12-05T14:39:04.291Z,4.56
2017-12-05T14:41:34.036Z,4.61
2017-12-05T14:44:03.898Z,4.55
2017-12-05T14:46:33.760Z,4.58
2017-12-05T14:49:03.419Z,4.49
2017-12-05T14:51:33.244Z,4.54
2017-12-05T14:54:02.724Z,4.48
2017-12-05T14:56:32.150Z,4.48
2017-12-05T14:59:01.610Z,4.46
2017-12-05T15:01:31.463Z,4.46
2017-12-05T15:04:01.276Z,4.44
2017-12-05T15:06:31.040Z,4.49
2017-12-05T15:09:04.822Z,4.52
2017-12-05T15:11:34.657Z,4.55
2017-12-05T15:14:04.126Z,4.47
2017-12-05T15:16:33.947Z,4.48
2017-12-05T15:19:03.734Z,4.44
2017-12-05T15:21:33.184Z,4.40
2017-12-05T15:24:02.983Z,4.48
2017-12-05T15:26:33.106Z,4.38
2017-12-05T15:29:02.937Z,4.42
2017-12-05T15:31:32.712Z,4.47
2017-12-05T15:34:02.606Z,4.48
2017-12-05T15:36:32.405Z,4.45
2017-12-05T15:39:01.874Z,4.38
2017-12-05T15:41:31.880Z,4.32
2017-12-05T15:44:01.806Z,4.32
2017-12-05T15:46:31.405Z,4.31
2017-12-05T15:49:01.165Z,4.35
2017-12-05T15:51:30.910Z,4.53
2017-12-05T15:54:00.847Z,4.47
2017-12-05T15:56:30.377Z,4.50
2017-12-05T15:59:00.447Z,4.48
2017-12-05T16:01:30.656Z,4.47
2017-12-05T16:04:00.265Z,4.40
2017-12-05T16:06:31.097Z,4.51
2017-12-05T16:09:00.529Z,4.49
2017-12-05T16:11:30.367Z,4.51
2017-12-05T16:14:00.202Z,4.46
2017-12-05T16:16:33.942Z,4.47
2017-12-05T16:19:03.403Z,4.45
2017-12-05T16:21:32.938Z,4.50
2017-12-05T16:24:02.758Z,4.47
2017-12-05T16:26:32.519Z,4.42
2017-12-05T16:29:02.384Z,4.29
2017-12-05T16:31:32.784Z,4.32
2017-12-05T16:34:02.693Z,4.28
2017-12-05T16:36:32.590Z,4.35
2017-12-05T16:39:02.367Z,4.26
2017-12-05T16:49:18.352Z,4.50
2017-12-05T16:51:49.458Z,4.48
2017-12-05T16:54:19.520Z,4.49
2017-12-05T16:56:49.622Z,4.50
2017-12-05T16:59:20.099Z,4.47
2017-12-05T17:01:50.678Z,4.46
2017-12-05T17:04:20.550Z,4.46
2017-12-05T17:06:50.833Z,4.43
2017-12-05T17:09:20.951Z,4.41
2017-12-05T17:11:50.724Z,4.40
2017-12-05T17:14:21.924Z,4.42
2017-12-05T17:16:51.918Z,4.44
2017-12-05T17:19:21.817Z,4.45
2017-12-05T17:21:51.640Z,4.42
2017-12-05T17:24:21.552Z,4.43
2017-12-05T17:26:51.145Z,4.35
2017-12-05T17:29:20.946Z,4.39
2017-12-05T17:31:51.305Z,4.40
2017-12-05T17:34:20.952Z,4.37
2017-12-05T17:36:50.384Z,4.33
2017-12-05T17:39:20.209Z,4.36
2017-12-05T17:41:49.966Z,4.40
2017-12-05T17:44:19.813Z,4.39
2017-12-05T17:46:49.638Z,4.40
2017-12-05T17:49:19.496Z,4.39
2017-12-05T17:51:49.485Z,4.41
2017-12-05T17:54:19.395Z,4.40
2017-12-05T17:56:49.216Z,4.39
2017-12-05T17:59:19.071Z,4.38
2017-12-05T18:01:49.806Z,4.36
2017-12-05T18:04:19.232Z,4.38
2017-12-05T18:06:48.815Z,4.37
2017-12-05T18:09:18.485Z,4.40
2017-12-05T18:11:48.129Z,4.37
2017-12-05T18:14:18.490Z,4.39
2017-12-05T18:16:48.945Z,4.40
2017-12-05T18:19:18.670Z,4.41
2017-12-05T18:21:48.095Z,4.39
2017-12-05T18:24:17.577Z,4.39
2017-12-05T18:26:47.061Z,4.43
2017-12-05T18:29:16.474Z,4.41
2017-12-05T18:31:46.232Z,4.39
2017-12-05T18:34:15.692Z,4.40
2017-12-05T18:36:45.430Z,4.43
2017-12-05T18:39:14.840Z,4.40
2017-12-05T18:41:44.272Z,4.46
2017-12-05T18:44:13.711Z,4.45
2017-12-05T18:46:43.263Z,4.48
2017-12-05T18:49:13.137Z,4.47
2017-12-05T18:51:42.964Z,4.45
2017-12-05T18:54:12.780Z,4.45
2017-12-05T18:56:42.274Z,4.47
2017-12-05T18:59:11.731Z,4.46
2017-12-05T19:01:42.966Z,4.47
2017-12-05T19:04:12.598Z,4.43
2017-12-05T19:06:42.684Z,4.43
2017-12-05T19:09:16.783Z,4.44
2017-12-05T19:11:46.678Z,4.44
2017-12-05T19:14:16.253Z,4.45
2017-12-05T19:16:45.690Z,4.46
2017-12-05T19:19:15.166Z,4.46
2017-12-05T19:21:44.923Z,4.44
2017-12-05T19:24:14.974Z,4.44
2017-12-05T19:29:26.175Z,4.45
2017-12-05T19:31:55.726Z,4.44
2017-12-05T19:34:26.156Z,4.46
2017-12-05T19:36:56.166Z,4.49
2017-12-05T19:39:26.543Z,4.51
2017-12-05T19:41:55.994Z,4.41
2017-12-05T19:44:27.057Z,4.49
2017-12-05T19:46:56.719Z,4.47
2017-12-05T19:49:26.133Z,4.47
2017-12-05T19:51:55.686Z,4.46
2017-12-05T19:54:25.174Z,4.48
2017-12-05T19:57:08.020Z,4.46
2017-12-05T19:59:37.401Z,4.43
2017-12-05T20:02:07.378Z,4.45
2017-12-05T20:09:50.271Z,4.38
2017-12-05T20:12:20.153Z,4.32
2017-12-05T20:15:00.655Z,4.35
2017-12-05T20:17:32.774Z,4.31
2017-12-05T20:20:02.774Z,4.33
2017-12-05T20:22:32.082Z,4.40
2017-12-05T20:25:01.657Z,4.35
2017-12-05T20:27:31.160Z,4.35
2017-12-05T20:30:00.607Z,4.26
2017-12-05T20:32:31.399Z,4.30
2017-12-05T20:35:00.843Z,4.32
2017-12-05T20:37:30.441Z,4.28
2017-12-05T20:40:00.111Z,4.26
2017-12-05T20:42:29.443Z,4.28
2017-12-05T20:44:58.796Z,4.24
2017-12-05T20:47:28.265Z,4.28
2017-12-05T20:49:57.183Z,4.26
2017-12-05T20:52:26.250Z,4.27
2017-12-05T20:54:55.527Z,4.24
2017-12-05T20:57:24.775Z,4.24
2017-12-05T20:59:54.769Z,4.25
2017-12-05T21:02:24.056Z,4.21
2017-12-05T21:04:53.385Z,4.19
2017-12-05T21:07:22.728Z,4.21
2017-12-05T21:09:52.186Z,4.18
2017-12-05T21:12:21.576Z,4.16
2017-12-05T21:14:52.003Z,4.18
2017-12-05T21:17:21.590Z,4.18
2017-12-05T21:19:51.188Z,4.24
2017-12-05T21:22:20.504Z,4.27
2017-12-05T21:24:49.765Z,4.26
2017-12-05T21:27:19.112Z,4.26
2017-12-05T21:29:48.404Z,4.21
2017-12-05T21:32:17.709Z,4.29
2017-12-05T21:34:46.945Z,4.31
2017-12-05T21:37:16.195Z,4.24
2017-12-05T21:39:45.507Z,4.26
2017-12-05T21:42:14.792Z,4.27
2017-12-05T21:44:44.062Z,4.16
2017-12-05T21:47:13.567Z,4.27
2017-12-05T21:49:43.300Z,4.20
2017-12-05T21:52:12.682Z,4.20
2017-12-05T21:54:42.032Z,4.18
2017-12-05T22:02:32.321Z,4.20
2017-12-05T22:05:02.890Z,4.22
2017-12-05T22:07:33.030Z,4.26
2017-12-05T22:10:03.181Z,4.18
2017-12-05T22:12:33.576Z,4.20
2017-12-05T22:15:03.341Z,4.20
2017-12-05T22:17:33.090Z,4.18
2017-12-05T22:20:02.907Z,4.22
2017-12-05T22:22:42.595Z,4.20
2017-12-05T22:25:13.196Z,4.16
2017-12-05T22:27:43.742Z,4.10
2017-12-05T22:30:13.597Z,4.21
2017-12-05T22:32:43.449Z,4.14
2017-12-05T22:35:13.496Z,4.16
2017-12-05T22:37:43.584Z,4.08
2017-12-05T22:40:13.404Z,4.23
2017-12-05T22:42:43.245Z,4.21
2017-12-05T22:45:12.879Z,4.19
2017-12-05T22:47:42.629Z,4.21
2017-12-05T22:50:12.426Z,4.25
2017-12-05T22:52:42.248Z,4.26
2017-12-05T22:55:11.997Z,4.24
2017-12-05T22:57:41.775Z,4.20
2017-12-05T23:00:11.655Z,4.16
2017-12-05T23:02:41.481Z,4.25
2017-12-05T23:05:15.471Z,4.22
2017-12-05T23:07:45.245Z,4.25
2017-12-05T23:10:15.028Z,4.24
2017-12-05T23:12:44.996Z,4.32
2017-12-05T23:15:14.794Z,4.27
2017-12-05T23:17:44.672Z,4.32
2017-12-05T23:20:14.579Z,4.31
2017-12-05T23:22:44.470Z,4.35
2017-12-05T23:25:14.294Z,4.33
2017-12-05T23:27:44.041Z,4.31
2017-12-05T23:30:14.376Z,4.30
2017-12-05T23:32:44.566Z,4.32
2017-12-05T23:35:14.088Z,4.34
2017-12-05T23:37:43.895Z,4.36
2017-12-05T23:40:13.716Z,4.31
2017-12-05T23:42:43.954Z,4.28
2017-12-05T23:45:13.682Z,4.26
2017-12-05T23:47:43.458Z,4.21
2017-12-05T23:50:13.178Z,4.14
2017-12-05T23:52:42.973Z,4.23
2017-12-05T23:55:12.760Z,4.22
2017-12-05T23:57:42.529Z,4.21
